createdAt,value
2018-04-27T00:01:10.017Z,5.60
2018-04-27T00:03:36.207Z,5.50
2018-04-27T00:06:02.433Z,5.30
2018-04-27T00:08:28.633Z,5.10
2018-04-27T00:10:55.550Z,4.70
2018-04-27T00:13:21.738Z,4.60
2018-04-27T00:15:47.926Z,4.60
2018-04-27T00:18:14.131Z,4.40
2018-04-27T00:20:40.310Z,4.30
2018-04-27T00:23:06.497Z,4.20
2018-04-27T00:25:32.698Z,4.00
2018-04-27T00:27:58.926Z,3.90
2018-04-27T00:30:25.162Z,3.80
2018-04-27T00:32:51.352Z,3.70
2018-04-27T00:35:17.530Z,3.70
2018-04-27T00:37:43.718Z,3.60
2018-04-27T00:40:09.909Z,3.60
2018-04-27T00:42:36.101Z,3.50
2018-04-27T00:45:03.017Z,3.30
2018-04-27T00:47:29.190Z,3.20
2018-04-27T00:49:56.125Z,3.20
2018-04-27T00:52:23.036Z,3.10
2018-04-27T00:54:49.242Z,3.10
2018-04-27T00:57:15.412Z,3.10
2018-04-27T00:59:41.576Z,3.10
2018-04-27T01:02:08.509Z,3.10
2018-04-27T01:04:34.689Z,3.00
2018-04-27T01:07:00.894Z,3.10
2018-04-27T01:09:27.821Z,3.10
2018-04-27T01:11:54.007Z,3.00
2018-04-27T01:14:20.193Z,3.10
2018-04-27T01:16:46.371Z,3.10
2018-04-27T01:19:12.540Z,3.00
2018-04-27T01:21:38.739Z,2.90
2018-04-27T01:24:04.985Z,2.90
2018-04-27T01:26:31.502Z,3.00
2018-04-27T01:28:57.689Z,3.10
2018-04-27T01:31:23.873Z,3.30
2018-04-27T01:33:50.037Z,3.40
2018-04-27T01:36:16.213Z,3.50
2018-04-27T01:38:43.138Z,3.80
2018-04-27T01:41:09.346Z,3.70
2018-04-27T01:43:35.549Z,3.80
2018-04-27T01:46:01.717Z,3.90
2018-04-27T01:48:27.893Z,3.90
2018-04-27T01:50:54.830Z,4.00
2018-04-27T01:53:21.029Z,3.90
2018-04-27T01:55:47.217Z,4.00
2018-04-27T01:58:14.141Z,4.10
2018-04-27T02:00:40.334Z,4.00
2018-04-27T02:03:06.531Z,4.10
2018-04-27T02:05:33.479Z,4.30
2018-04-27T02:08:00.402Z,4.30
2018-04-27T02:10:26.610Z,4.30
2018-04-27T02:12:52.817Z,4.40
2018-04-27T02:15:19.023Z,4.40
2018-04-27T02:17:46.025Z,4.50
2018-04-27T02:20:12.207Z,4.50
2018-04-27T02:22:39.150Z,4.60
2018-04-27T02:25:06.198Z,4.60
2018-04-27T02:27:32.588Z,4.60
2018-04-27T02:29:59.554Z,4.70
2018-04-27T02:32:25.740Z,4.60
2018-04-27T02:34:52.669Z,4.70
2018-04-27T02:37:19.603Z,4.90
2018-04-27T02:39:45.764Z,4.80
2018-04-27T02:42:12.707Z,4.90
2018-04-27T02:44:39.622Z,4.90
2018-04-27T02:47:05.799Z,4.90
2018-04-27T02:49:32.729Z,4.80
2018-04-27T02:51:58.910Z,4.80
2018-04-27T02:54:25.116Z,4.80
2018-04-27T02:56:52.037Z,4.80
2018-04-27T02:59:18.250Z,4.70
2018-04-27T03:01:44.441Z,4.80
2018-04-27T03:04:10.609Z,4.80
2018-04-27T03:06:36.801Z,4.80
2018-04-27T03:09:03.729Z,4.90
2018-04-27T03:11:29.918Z,4.90
2018-04-27T03:13:56.134Z,5.00
2018-04-27T03:16:22.325Z,5.10
2018-04-27T03:18:49.341Z,5.10
2018-04-27T03:21:15.564Z,5.00
2018-04-27T03:23:41.774Z,5.10
2018-04-27T03:26:08.350Z,5.10
2018-04-27T03:28:34.666Z,5.10
2018-04-27T03:31:00.929Z,5.10
2018-04-27T03:33:27.113Z,5.10
2018-04-27T03:35:53.289Z,5.10
2018-04-27T03:38:19.473Z,5.30
2018-04-27T03:40:46.398Z,5.20
2018-04-27T03:43:12.598Z,5.20
2018-04-27T03:45:38.774Z,5.30
2018-04-27T03:48:05.690Z,5.30
2018-04-27T03:50:31.878Z,5.30
2018-04-27T03:52:58.078Z,5.40
2018-04-27T03:55:24.282Z,5.40
2018-04-27T03:57:50.456Z,5.40
2018-04-27T04:00:29.848Z,5.50
2018-04-27T04:03:08.547Z,5.50
2018-04-27T04:05:34.766Z,5.70
2018-04-27T04:08:00.953Z,5.70
2018-04-27T04:10:27.141Z,5.80
2018-04-27T04:12:53.396Z,5.80
2018-04-27T04:15:19.574Z,5.80
2018-04-27T04:17:46.531Z,5.90
2018-04-27T04:20:13.462Z,6.00
2018-04-27T04:22:39.666Z,5.90
2018-04-27T04:25:05.864Z,5.90
2018-04-27T04:27:32.037Z,5.90
2018-04-27T04:29:58.237Z,5.90
2018-04-27T04:32:24.490Z,6.00
2018-04-27T04:34:51.357Z,6.00
2018-04-27T04:37:17.578Z,5.90
2018-04-27T04:39:43.741Z,6.00
2018-04-27T04:42:09.937Z,6.10
2018-04-27T04:44:36.102Z,6.10
2018-04-27T04:47:03.770Z,6.20
2018-04-27T04:49:31.458Z,6.30
2018-04-27T04:51:58.388Z,6.30
2018-04-27T04:54:24.590Z,6.30
2018-04-27T04:56:50.757Z,6.40
2018-04-27T04:59:18.426Z,6.40
2018-04-27T05:01:44.620Z,6.40
2018-04-27T05:04:10.824Z,6.50
2018-04-27T05:06:37.033Z,6.50
2018-04-27T05:09:03.979Z,6.70
2018-04-27T05:11:30.937Z,6.80
2018-04-27T05:13:57.866Z,6.80
2018-04-27T05:16:24.074Z,6.80
2018-04-27T05:18:52.181Z,6.80
2018-04-27T05:21:18.381Z,6.90
2018-04-27T05:23:44.586Z,7.00
2018-04-27T05:26:10.769Z,7.20
2018-04-27T05:28:37.186Z,7.30
2018-04-27T05:31:15.682Z,7.30
2018-04-27T05:33:41.878Z,7.40
2018-04-27T05:36:08.820Z,7.20
2018-04-27T05:38:35.012Z,7.10
2018-04-27T05:41:01.250Z,7.10
2018-04-27T05:43:27.483Z,7.00
2018-04-27T05:45:53.683Z,7.00
2018-04-27T05:48:19.877Z,7.00
2018-04-27T05:50:46.834Z,7.20
2018-04-27T05:53:13.041Z,7.10
2018-04-27T05:55:39.280Z,7.30
2018-04-27T05:58:05.473Z,7.40
2018-04-27T06:00:31.672Z,7.50
2018-04-27T06:02:58.608Z,7.70
2018-04-27T06:05:24.808Z,7.70
2018-04-27T06:07:51.009Z,7.80
2018-04-27T06:10:17.461Z,7.70
2018-04-27T06:12:43.665Z,7.60
2018-04-27T06:15:10.591Z,7.40
2018-04-27T06:17:36.786Z,7.40
2018-04-27T06:20:02.993Z,7.50
2018-04-27T06:22:29.181Z,7.60
2018-04-27T06:24:55.402Z,7.60
2018-04-27T06:27:21.601Z,7.70
2018-04-27T06:29:47.894Z,7.80
2018-04-27T06:32:14.137Z,8.10
2018-04-27T06:34:40.341Z,8.10
2018-04-27T06:37:06.593Z,8.40
2018-04-27T06:39:32.781Z,8.50
2018-04-27T06:41:58.978Z,8.70
2018-04-27T06:44:25.917Z,8.60
2018-04-27T06:46:52.101Z,8.60
2018-04-27T06:49:18.302Z,8.80
2018-04-27T06:51:45.241Z,9.20
2018-04-27T06:54:11.429Z,9.20
2018-04-27T06:56:37.617Z,9.30
2018-04-27T06:59:04.523Z,8.70
2018-04-27T07:01:30.749Z,8.70
2018-04-27T07:03:56.928Z,8.60
2018-04-27T07:06:23.866Z,8.50
2018-04-27T07:08:50.079Z,8.40
2018-04-27T07:11:16.278Z,8.40
2018-04-27T07:13:42.490Z,8.30
2018-04-27T07:16:08.693Z,8.30
2018-04-27T07:18:34.879Z,8.30
2018-04-27T07:21:01.080Z,8.40
2018-04-27T07:23:27.985Z,8.50
2018-04-27T07:25:54.208Z,8.50
2018-04-27T07:28:20.424Z,8.70
2018-04-27T07:30:46.625Z,8.80
2018-04-27T07:33:13.595Z,8.60
2018-04-27T07:35:39.785Z,8.60
2018-04-27T07:38:06.026Z,8.50
2018-04-27T07:40:32.974Z,8.60
2018-04-27T07:42:59.934Z,8.70
2018-04-27T07:45:26.129Z,8.70
2018-04-27T07:47:52.332Z,8.90
2018-04-27T07:50:18.552Z,8.80
2018-04-27T07:52:45.491Z,8.90
2018-04-27T07:55:12.396Z,9.10
2018-04-27T07:57:38.594Z,9.10
2018-04-27T08:00:04.818Z,9.40
2018-04-27T08:02:31.046Z,9.50
2018-04-27T08:04:57.282Z,9.30
2018-04-27T08:07:24.228Z,8.70
2018-04-27T08:09:51.188Z,8.80
2018-04-27T08:12:17.393Z,8.70
2018-04-27T08:14:43.596Z,8.90
2018-04-27T08:17:09.786Z,9.10
2018-04-27T08:19:36.722Z,9.00
2018-04-27T08:22:03.663Z,9.20
2018-04-27T08:24:30.639Z,9.30
2018-04-27T08:26:56.813Z,9.20
2018-04-27T08:29:23.014Z,9.20
2018-04-27T08:31:49.218Z,9.30
2018-04-27T08:34:15.430Z,9.40
2018-04-27T08:36:41.606Z,9.50
2018-04-27T08:39:07.934Z,9.70
2018-04-27T08:41:34.865Z,10.00
2018-04-27T08:44:01.067Z,9.90
2018-04-27T08:46:28.251Z,9.80
2018-04-27T08:48:54.450Z,9.80
2018-04-27T08:51:20.658Z,9.70
2018-04-27T08:53:46.909Z,9.60
2018-04-27T08:56:13.105Z,9.50
2018-04-27T08:58:40.053Z,9.40
2018-04-27T09:01:06.998Z,9.40
2018-04-27T09:03:33.922Z,9.50
2018-04-27T09:06:00.147Z,9.40
2018-04-27T09:08:26.346Z,9.50
2018-04-27T09:10:52.528Z,9.70
2018-04-27T09:13:18.751Z,9.90
2018-04-27T09:15:44.951Z,10.10
2018-04-27T09:18:11.166Z,10.20
2018-04-27T09:20:37.369Z,10.20
2018-04-27T09:23:03.569Z,10.30
2018-04-27T09:25:29.806Z,10.20
2018-04-27T09:27:55.993Z,10.00
2018-04-27T09:30:22.365Z,10.10
2018-04-27T09:32:48.704Z,10.60
2018-04-27T09:35:14.898Z,11.10
2018-04-27T09:37:41.846Z,11.80
2018-04-27T09:40:08.782Z,11.80
2018-04-27T09:42:35.706Z,11.60
2018-04-27T09:45:01.898Z,11.50
2018-04-27T09:47:28.094Z,11.80
2018-04-27T09:49:54.332Z,11.50
2018-04-27T09:52:21.267Z,11.60
2018-04-27T09:54:47.450Z,11.50
2018-04-27T09:57:13.679Z,11.80
2018-04-27T09:59:39.889Z,12.10
2018-04-27T10:02:06.873Z,11.70
2018-04-27T10:04:33.068Z,11.60
2018-04-27T10:06:59.998Z,11.40
2018-04-27T10:09:26.185Z,11.30
2018-04-27T10:11:52.369Z,11.40
2018-04-27T10:14:18.582Z,10.80
2018-04-27T10:16:44.782Z,10.60
2018-04-27T10:19:10.978Z,10.70
2018-04-27T10:21:37.906Z,10.50
2018-04-27T10:24:04.089Z,10.50
2018-04-27T10:26:30.308Z,10.40
2018-04-27T10:28:57.246Z,10.50
2018-04-27T10:31:24.982Z,10.30
2018-04-27T10:33:51.723Z,10.20
2018-04-27T10:36:17.918Z,10.40
2018-04-27T10:38:44.151Z,10.60
2018-04-27T10:41:10.341Z,10.80
2018-04-27T10:43:36.538Z,10.40
2018-04-27T10:46:02.733Z,10.20
2018-04-27T10:48:29.665Z,10.10
2018-04-27T10:50:55.882Z,10.00
2018-04-27T10:53:22.109Z,10.10
2018-04-27T10:55:48.310Z,10.00
2018-04-27T10:58:14.518Z,10.00
2018-04-27T11:00:41.760Z,10.30
2018-04-27T11:03:08.704Z,10.50
2018-04-27T11:05:34.899Z,10.40
2018-04-27T11:08:01.113Z,10.30
2018-04-27T11:10:27.296Z,10.40
2018-04-27T11:12:53.468Z,10.70
2018-04-27T11:15:19.681Z,10.80
2018-04-27T11:17:46.628Z,10.20
2018-04-27T11:20:12.894Z,10.20
2018-04-27T11:22:39.023Z,10.20
2018-04-27T11:25:05.217Z,10.10
2018-04-27T11:27:31.451Z,10.00
2018-04-27T11:29:57.639Z,9.90
2018-04-27T11:32:24.264Z,9.80
2018-04-27T11:34:50.941Z,10.10
2018-04-27T11:37:17.122Z,10.30
2018-04-27T11:39:44.070Z,10.70
2018-04-27T11:42:10.977Z,10.80
2018-04-27T11:44:37.166Z,10.70
2018-04-27T11:47:03.365Z,10.90
2018-04-27T11:49:29.571Z,11.00
2018-04-27T11:51:55.949Z,10.70
2018-04-27T11:54:22.140Z,11.00
2018-04-27T11:56:48.350Z,11.10
2018-04-27T11:59:14.558Z,11.30
2018-04-27T12:01:41.596Z,12.40
2018-04-27T12:04:07.729Z,12.30
2018-04-27T12:06:33.947Z,13.20
2018-04-27T12:09:00.136Z,13.20
2018-04-27T12:11:26.341Z,12.70
2018-04-27T12:13:53.263Z,11.90
2018-04-27T12:16:19.485Z,11.80
2018-04-27T12:18:45.683Z,11.60
2018-04-27T12:21:11.862Z,11.50
2018-04-27T12:23:38.058Z,11.80
2018-04-27T12:26:04.245Z,12.20
2018-04-27T12:28:31.189Z,12.10
2018-04-27T12:30:57.384Z,12.10
2018-04-27T12:33:23.574Z,11.90
2018-04-27T12:35:49.829Z,12.00
2018-04-27T12:38:16.018Z,11.90
2018-04-27T12:40:42.223Z,11.80
2018-04-27T12:43:08.426Z,12.10
2018-04-27T12:45:34.608Z,12.00
2018-04-27T12:48:00.810Z,11.80
2018-04-27T12:50:27.014Z,11.90
2018-04-27T12:52:53.273Z,12.00
2018-04-27T12:55:19.465Z,12.10
2018-04-27T12:57:46.440Z,12.60
2018-04-27T13:00:12.622Z,12.60
2018-04-27T13:02:38.818Z,12.90
2018-04-27T13:05:05.019Z,13.20
2018-04-27T13:07:31.937Z,13.50
2018-04-27T13:09:58.130Z,13.40
2018-04-27T13:12:24.395Z,13.90
2018-04-27T13:14:50.566Z,13.70
2018-04-27T13:17:17.506Z,13.70
2018-04-27T13:19:43.691Z,13.60
2018-04-27T13:22:09.862Z,13.70
2018-04-27T13:24:36.076Z,13.80
2018-04-27T13:27:02.262Z,14.00
2018-04-27T13:29:29.173Z,13.50
2018-04-27T13:31:55.372Z,13.40
2018-04-27T13:34:21.604Z,13.40
2018-04-27T13:36:47.812Z,13.30
2018-04-27T13:39:13.997Z,12.90
2018-04-27T13:41:40.177Z,12.80
2018-04-27T13:44:06.374Z,12.70
2018-04-27T13:46:32.566Z,12.30
2018-04-27T13:48:58.790Z,12.10
2018-04-27T13:51:24.988Z,12.10
2018-04-27T13:53:51.946Z,11.90
2018-04-27T13:56:18.875Z,12.00
2018-04-27T13:58:45.815Z,12.10
2018-04-27T14:01:12.041Z,12.10
2018-04-27T14:03:38.236Z,12.00
2018-04-27T14:06:04.433Z,12.20
2018-04-27T14:08:31.387Z,12.60
2018-04-27T14:10:57.582Z,12.50
2018-04-27T14:13:23.801Z,12.50
2018-04-27T14:15:49.994Z,12.20
2018-04-27T14:18:16.922Z,12.40
2018-04-27T14:20:43.127Z,12.40
2018-04-27T14:23:09.309Z,12.70
2018-04-27T14:25:36.266Z,12.60
2018-04-27T14:28:02.469Z,12.60
2018-04-27T14:30:28.669Z,12.60
2018-04-27T14:32:54.870Z,12.50
2018-04-27T14:35:21.060Z,12.40
2018-04-27T14:37:47.300Z,12.40
2018-04-27T14:40:13.474Z,12.20
2018-04-27T14:42:39.657Z,12.10
2018-04-27T14:45:05.829Z,12.00
2018-04-27T14:47:32.766Z,11.90
2018-04-27T14:49:59.753Z,12.10
2018-04-27T14:52:25.998Z,12.10
2018-04-27T14:54:52.896Z,11.90
2018-04-27T14:57:19.106Z,11.80
2018-04-27T14:59:45.289Z,12.00
2018-04-27T15:02:11.499Z,12.00
2018-04-27T15:04:38.406Z,11.40
2018-04-27T15:07:04.595Z,11.40
2018-04-27T15:09:30.781Z,11.30
2018-04-27T15:11:56.966Z,11.30
2018-04-27T15:14:23.173Z,11.40
2018-04-27T15:16:49.349Z,11.30
2018-04-27T15:19:15.545Z,11.20
2018-04-27T15:21:42.485Z,11.00
2018-04-27T15:24:08.729Z,11.00
2018-04-27T15:26:34.939Z,11.00
2018-04-27T15:29:01.152Z,11.00
2018-04-27T15:31:27.337Z,11.00
2018-04-27T15:33:54.542Z,11.50
2018-04-27T15:36:21.074Z,11.40
2018-04-27T15:38:47.291Z,11.60
2018-04-27T15:41:13.483Z,11.50
2018-04-27T15:43:39.689Z,11.50
2018-04-27T15:46:05.893Z,11.20
2018-04-27T15:48:32.084Z,11.10
2018-04-27T15:50:58.399Z,11.10
2018-04-27T15:53:24.529Z,11.20
2018-04-27T15:55:50.726Z,11.20
2018-04-27T15:58:16.910Z,11.20
2018-04-27T16:00:43.109Z,11.20
2018-04-27T16:03:09.318Z,11.00
2018-04-27T16:05:35.508Z,11.00
2018-04-27T16:08:01.694Z,11.10
2018-04-27T16:10:27.919Z,11.00
2018-04-27T16:15:52.899Z,11.10
2018-04-27T16:18:19.871Z,11.00
2018-04-27T16:20:46.066Z,10.90
2018-04-27T16:23:12.274Z,11.10
2018-04-27T16:25:38.452Z,11.20
2018-04-27T16:28:05.444Z,11.30
2018-04-27T16:30:31.626Z,11.30
2018-04-27T16:32:57.829Z,11.30
2018-04-27T16:35:24.030Z,11.30
2018-04-27T16:37:50.234Z,11.30
2018-04-27T16:40:17.314Z,11.20
2018-04-27T16:42:43.482Z,11.10
2018-04-27T16:45:09.722Z,11.10
2018-04-27T16:47:35.917Z,11.00
2018-04-27T16:50:02.108Z,11.00
2018-04-27T16:52:28.310Z,10.90
2018-04-27T16:54:54.498Z,10.80
2018-04-27T16:57:20.716Z,10.80
2018-04-27T16:59:47.676Z,10.70
2018-04-27T17:02:14.590Z,10.70
2018-04-27T17:04:40.781Z,10.60
2018-04-27T17:07:06.987Z,10.70
2018-04-27T17:09:33.974Z,10.60
2018-04-27T17:12:00.227Z,10.60
2018-04-27T17:14:26.424Z,10.50
2018-04-27T17:16:52.617Z,10.40
2018-04-27T17:19:18.864Z,10.30
2018-04-27T17:21:45.061Z,10.20
2018-04-27T17:24:11.261Z,10.10
2018-04-27T17:26:37.597Z,10.00
2018-04-27T17:29:04.393Z,10.00
2018-04-27T17:31:30.582Z,9.90
2018-04-27T17:33:56.801Z,9.90
2018-04-27T17:36:22.998Z,9.80
2018-04-27T17:38:49.202Z,9.70
2018-04-27T17:41:15.405Z,9.60
2018-04-27T17:43:41.603Z,9.60
2018-04-27T17:46:07.818Z,9.60
2018-04-27T17:48:34.010Z,9.60
2018-04-27T17:51:00.231Z,9.50
2018-04-27T17:53:26.522Z,9.40
2018-04-27T17:55:53.404Z,9.30
2018-04-27T17:58:20.382Z,9.20
2018-04-27T18:00:46.558Z,9.10
2018-04-27T18:03:12.739Z,9.00
2018-04-27T18:05:38.960Z,8.90
2018-04-27T18:08:05.926Z,8.50
2018-04-27T18:10:32.146Z,8.50
2018-04-27T18:12:58.350Z,8.40
2018-04-27T18:15:24.540Z,8.30
2018-04-27T18:17:50.737Z,8.30
2018-04-27T18:20:17.693Z,8.10
2018-04-27T18:22:44.661Z,8.00
2018-04-27T18:25:10.857Z,7.90
2018-04-27T18:27:37.051Z,7.90
2018-04-27T18:30:03.248Z,7.80
2018-04-27T18:32:29.441Z,7.70
2018-04-27T18:34:55.661Z,7.70
2018-04-27T18:37:21.894Z,7.60
2018-04-27T18:39:48.098Z,7.60
2018-04-27T18:42:14.320Z,7.50
2018-04-27T18:44:40.498Z,7.50
2018-04-27T18:47:06.695Z,7.30
2018-04-27T18:49:32.909Z,7.10
2018-04-27T18:51:59.106Z,6.90
2018-04-27T18:54:25.302Z,6.70
2018-04-27T18:56:51.489Z,6.50
2018-04-27T18:59:18.413Z,6.20
2018-04-27T19:01:44.634Z,6.10
2018-04-27T19:04:10.832Z,6.10
2018-04-27T19:06:37.025Z,5.90
2018-04-27T19:09:03.261Z,5.80
2018-04-27T19:11:29.463Z,5.80
2018-04-27T19:13:55.668Z,5.70
2018-04-27T19:16:21.856Z,5.60
2018-04-27T19:18:48.052Z,5.60
2018-04-27T19:21:18.194Z,5.50
2018-04-27T19:23:44.391Z,5.30
2018-04-27T19:26:11.546Z,5.20
2018-04-27T19:28:37.724Z,5.10
2018-04-27T19:31:03.941Z,5.00
2018-04-27T19:33:31.024Z,4.90
2018-04-27T19:35:57.235Z,4.90
2018-04-27T19:38:23.469Z,4.80
2018-04-27T19:40:49.686Z,4.70
2018-04-27T19:43:15.866Z,4.60
2018-04-27T19:45:42.798Z,4.50
2018-04-27T19:48:08.994Z,4.50
2018-04-27T19:50:35.192Z,4.50
2018-04-27T19:53:02.150Z,4.40
2018-04-27T19:55:29.085Z,4.30
2018-04-27T19:57:56.035Z,4.30
2018-04-27T20:00:37.269Z,4.40
2018-04-27T20:03:03.498Z,4.30
2018-04-27T20:05:29.686Z,4.30
2018-04-27T20:07:56.618Z,4.30
2018-04-27T20:10:23.641Z,4.20
2018-04-27T20:12:49.832Z,4.40
2018-04-27T20:15:16.043Z,4.60
2018-04-27T20:17:51.446Z,5.00
2018-04-27T20:20:17.679Z,4.90
2018-04-27T20:22:47.815Z,5.10
2018-04-27T20:25:14.019Z,5.20
2018-04-27T20:27:42.083Z,5.20
2018-04-27T20:30:09.284Z,5.20
2018-04-27T20:32:35.507Z,5.20
2018-04-27T20:35:01.704Z,5.10
2018-04-27T20:37:27.906Z,5.10
2018-04-27T20:39:54.113Z,5.00
2018-04-27T20:42:20.309Z,5.00
2018-04-27T20:44:46.506Z,5.00
2018-04-27T20:47:13.450Z,4.90
2018-04-27T20:49:39.677Z,4.90
2018-04-27T20:52:05.869Z,4.90
2018-04-27T20:54:32.039Z,4.80
2018-04-27T20:56:58.254Z,4.80
2018-04-27T20:59:24.457Z,4.80
2018-04-27T21:01:50.681Z,4.80
2018-04-27T21:04:16.891Z,4.80
2018-04-27T21:06:43.821Z,4.70
2018-04-27T21:09:10.782Z,4.70
2018-04-27T21:11:36.994Z,4.60
2018-04-27T21:14:03.221Z,4.60
2018-04-27T21:16:29.418Z,4.60
2018-04-27T21:18:55.613Z,4.50
2018-04-27T21:21:21.813Z,4.50
2018-04-27T21:23:48.013Z,4.40
2018-04-27T21:26:14.201Z,4.30
2018-04-27T21:28:40.413Z,4.20
2018-04-27T21:31:06.588Z,4.20
2018-04-27T21:33:33.527Z,4.20
2018-04-27T21:35:59.744Z,4.10
2018-04-27T21:41:23.722Z,4.10
2018-04-27T21:43:49.915Z,4.10
2018-04-27T21:46:24.207Z,4.10
2018-04-27T21:48:51.135Z,4.00
2018-04-27T21:51:36.157Z,4.00
2018-04-27T21:54:10.806Z,4.00
2018-04-27T21:56:37.010Z,4.00
2018-04-27T21:59:03.200Z,4.00
2018-04-27T22:01:29.427Z,4.00
2018-04-27T22:03:57.594Z,3.90
2018-04-27T22:06:23.801Z,3.90
2018-04-27T22:08:50.073Z,4.00
2018-04-27T22:11:18.025Z,4.00
2018-04-27T22:13:44.233Z,4.00
2018-04-27T22:16:15.154Z,4.10
2018-04-27T22:18:42.111Z,4.20
2018-04-27T22:21:08.297Z,4.10
2018-04-27T22:23:34.503Z,4.20
2018-04-27T22:26:03.714Z,4.20
2018-04-27T22:28:35.899Z,4.20
2018-04-27T22:31:02.125Z,4.10
2018-04-27T22:33:30.038Z,4.10
2018-04-27T22:36:13.825Z,4.10
2018-04-27T22:38:41.866Z,4.10
2018-04-27T22:41:08.052Z,4.10
2018-04-27T22:43:35.007Z,4.10
2018-04-27T22:46:06.919Z,4.10
2018-04-27T22:48:34.033Z,4.10
2018-04-27T22:51:02.202Z,4.10
2018-04-27T22:53:29.195Z,4.10
2018-04-27T22:55:55.413Z,4.00
2018-04-27T22:58:22.353Z,4.00
2018-04-27T23:00:49.282Z,4.00
2018-04-27T23:03:18.618Z,3.90
2018-04-27T23:05:45.559Z,4.00
2018-04-27T23:08:12.485Z,3.90
2018-04-27T23:10:50.446Z,3.90
2018-04-27T23:13:20.625Z,3.90
2018-04-27T23:15:50.425Z,3.90
2018-04-27T23:18:17.409Z,3.90
2018-04-27T23:20:45.200Z,3.90
2018-04-27T23:23:11.382Z,3.90
2018-04-27T23:25:53.466Z,3.90
2018-04-27T23:28:19.649Z,4.00
2018-04-27T23:30:45.841Z,4.00
2018-04-27T23:33:12.037Z,4.00
2018-04-27T23:35:39.217Z,4.00
2018-04-27T23:38:05.436Z,4.00
2018-04-27T23:40:31.625Z,4.00
2018-04-27T23:42:58.010Z,4.00
2018-04-27T23:45:24.214Z,4.00
2018-04-27T23:47:50.401Z,4.00
2018-04-27T23:50:18.094Z,4.00
2018-04-27T23:52:44.302Z,4.00
2018-04-27T23:55:10.484Z,4.10
2018-04-27T23:57:36.682Z,4.10
